Time;durP1;ratioP1;P1;durP2;ratioP2;P2;SDS_P1;SDS_P2;PMS_P1;PMS_P2;Temp;Humidity;BMP_temperature;BMP_pressure;BME280_temperature;BME280_humidity;BME280_pressure;Samples;Min_cycle;Max_cycle;Signal;HPM_P1;HPM_P2
2023/09/15 00:00:23;;;;;;;5.50;3.20;;;10.20;99.90;;;;;;5050958;28;20432;-62
2023/09/15 00:02:50;;;;;;;4.30;2.60;;;10.20;99.90;;;;;;5050149;28;20532;-62
2023/09/15 00:05:16;;;;;;;5.28;3.00;;;10.20;99.90;;;;;;5051933;28;20053;-62
2023/09/15 00:07:42;;;;;;;6.68;2.80;;;10.10;99.90;;;;;;5047851;28;20144;-62
2023/09/15 00:10:14;;;;;;;6.00;3.17;;;10.10;99.90;;;;;;5033020;28;20144;-63
2023/09/15 00:12:44;;;;;;;7.47;3.05;;;10.10;99.90;;;;;;5032249;28;20424;-62
2023/09/15 00:15:11;;;;;;;5.88;2.67;;;10.10;99.90;;;;;;5031999;28;20082;-62
2023/09/15 00:17:39;;;;;;;5.97;3.08;;;10.10;99.90;;;;;;5031266;28;20033;-63
2023/09/15 00:20:13;;;;;;;4.57;3.00;;;10.00;99.90;;;;;;5032446;28;20053;-63
2023/09/15 00:22:39;;;;;;;5.38;3.00;;;10.00;99.90;;;;;;5032301;28;20057;-63
2023/09/15 00:25:05;;;;;;;8.20;2.70;;;10.00;99.90;;;;;;5032008;28;20056;-63
2023/09/15 00:27:31;;;;;;;6.80;2.90;;;9.90;99.90;;;;;;5051863;28;20045;-63
2023/09/15 00:29:56;;;;;;;6.40;3.22;;;9.90;99.90;;;;;;5049737;28;20601;-63
2023/09/15 00:32:22;;;;;;;7.07;2.90;;;9.90;99.90;;;;;;5052682;28;20037;-62
2023/09/15 00:34:47;;;;;;;3.65;2.72;;;9.90;99.90;;;;;;5051913;28;20041;-63
2023/09/15 00:37:13;;;;;;;10.02;3.17;;;9.90;99.90;;;;;;5053140;28;20120;-62
2023/09/15 00:39:38;;;;;;;5.78;3.25;;;9.80;99.90;;;;;;5051630;28;20037;-64
2023/09/15 00:42:04;;;;;;;4.55;3.20;;;9.80;99.90;;;;;;5035377;28;20041;-62
2023/09/15 00:44:30;;;;;;;7.07;3.08;;;9.80;99.90;;;;;;5049611;28;20066;-63
2023/09/15 00:46:55;;;;;;;7.45;3.17;;;9.80;99.90;;;;;;5052674;28;20045;-63
2023/09/15 00:49:21;;;;;;;5.68;3.05;;;9.80;99.90;;;;;;5052879;28;20041;-63
2023/09/15 00:51:48;;;;;;;7.53;2.92;;;9.70;99.90;;;;;;5051584;28;20041;-62
2023/09/15 00:54:14;;;;;;;6.60;3.17;;;9.70;99.90;;;;;;5052160;28;20103;-63
2023/09/15 00:56:40;;;;;;;7.47;3.30;;;9.70;99.90;;;;;;5051149;28;20064;-63
2023/09/15 00:59:06;;;;;;;5.85;2.90;;;9.70;99.90;;;;;;5050030;28;20049;-63
2023/09/15 01:01:32;;;;;;;8.02;3.17;;;9.70;99.90;;;;;;5050944;28;20468;-62
2023/09/15 01:03:57;;;;;;;11.05;2.88;;;9.70;99.90;;;;;;5049947;28;20061;-62
2023/09/15 01:06:25;;;;;;;5.90;3.10;;;9.70;99.90;;;;;;5053219;28;20040;-63
2023/09/15 01:08:51;;;;;;;7.70;3.45;;;9.70;99.90;;;;;;5051070;28;20045;-62
2023/09/15 01:11:17;;;;;;;6.10;3.30;;;9.70;99.90;;;;;;5050268;28;20429;-62
2023/09/15 01:13:43;;;;;;;7.40;3.17;;;9.60;99.90;;;;;;5050740;28;20039;-62
2023/09/15 01:16:25;;;;;;;10.18;4.03;;;9.70;99.90;;;;;;5048965;28;20041;-63
2023/09/15 01:18:55;;;;;;;5.32;2.95;;;9.70;99.90;;;;;;5049995;28;20045;-63
2023/09/15 01:21:53;;;;;;;5.07;3.17;;;9.70;99.90;;;;;;5050941;28;20040;-63
2023/09/15 01:24:51;;;;;;;5.15;2.78;;;9.70;99.90;;;;;;5049222;28;20076;-63
2023/09/15 01:27:48;;;;;;;9.35;3.60;;;9.70;99.90;;;;;;5050865;28;20381;-62
2023/09/15 01:30:14;;;;;;;8.43;3.10;;;9.70;99.90;;;;;;5030095;28;20120;-62
2023/09/15 01:32:42;;;;;;;8.25;3.05;;;9.70;99.90;;;;;;5046481;28;20129;-63
2023/09/15 01:35:08;;;;;;;8.63;3.20;;;9.70;99.90;;;;;;5030856;28;20064;-63
2023/09/15 01:37:33;;;;;;;4.45;2.67;;;9.70;99.90;;;;;;5030312;28;20045;-63
2023/09/15 01:39:59;;;;;;;7.95;3.13;;;9.60;99.90;;;;;;5030070;28;20046;-62
2023/09/15 01:42:25;;;;;;;7.57;3.42;;;9.60;99.90;;;;;;5032226;28;20432;-63
2023/09/15 01:44:51;;;;;;;6.28;3.45;;;9.60;99.90;;;;;;5029857;28;20110;-62
2023/09/15 01:47:21;;;;;;;9.25;3.25;;;9.60;99.90;;;;;;5030249;28;20057;-63
2023/09/15 01:49:50;;;;;;;5.97;3.08;;;9.50;99.90;;;;;;5030347;28;20057;-63
2023/09/15 01:52:16;;;;;;;5.22;2.88;;;9.50;99.90;;;;;;5030488;28;20077;-62
2023/09/15 01:54:42;;;;;;;12.00;3.42;;;9.50;99.90;;;;;;5029151;28;20041;-63
2023/09/15 01:57:07;;;;;;;5.88;3.30;;;9.50;99.90;;;;;;5030341;28;20051;-64
2023/09/15 01:59:34;;;;;;;4.07;2.85;;;9.50;99.90;;;;;;5029627;28;20838;-62
2023/09/15 02:01:59;;;;;;;5.78;3.25;;;9.40;99.90;;;;;;5028771;28;20114;-63
2023/09/15 02:04:25;;;;;;;6.60;3.40;;;9.40;99.90;;;;;;5030170;28;20437;-63
2023/09/15 02:06:51;;;;;;;8.25;3.92;;;9.40;99.90;;;;;;5030727;28;20328;-63
2023/09/15 02:09:18;;;;;;;6.40;3.10;;;9.40;99.90;;;;;;5030592;28;20095;-62
2023/09/15 02:11:44;;;;;;;7.70;3.28;;;9.40;99.90;;;;;;5031460;28;20042;-63
2023/09/15 02:14:09;;;;;;;7.38;2.95;;;9.40;99.90;;;;;;5028672;28;20125;-63
2023/09/15 02:16:35;;;;;;;9.25;3.33;;;9.40;99.90;;;;;;5029259;28;20037;-63
2023/09/15 02:19:01;;;;;;;9.20;3.00;;;9.40;99.90;;;;;;5048869;28;20382;-62
2023/09/15 02:21:26;;;;;;;6.97;3.22;;;9.40;99.90;;;;;;5051454;28;20044;-62
2023/09/15 02:23:52;;;;;;;8.45;3.50;;;9.30;99.90;;;;;;5050731;28;20029;-63
2023/09/15 02:26:17;;;;;;;7.05;2.80;;;9.30;99.90;;;;;;5050712;28;20638;-62
2023/09/15 02:28:43;;;;;;;6.57;3.10;;;9.30;99.90;;;;;;5049630;28;20037;-63
2023/09/15 02:31:09;;;;;;;12.00;3.33;;;9.30;99.90;;;;;;5047124;28;20489;-62
2023/09/15 02:33:37;;;;;;;10.50;3.58;;;9.30;99.90;;;;;;5050477;28;20631;-62
2023/09/15 02:36:03;;;;;;;6.72;3.03;;;9.20;99.90;;;;;;5043347;28;20041;-62
2023/09/15 02:38:29;;;;;;;6.90;2.80;;;9.20;99.90;;;;;;5049479;28;20713;-63
2023/09/15 02:40:55;;;;;;;7.47;3.10;;;9.10;99.90;;;;;;5050453;28;20115;-62
2023/09/15 02:43:20;;;;;;;5.55;3.20;;;9.10;99.90;;;;;;5050803;28;20397;-63
2023/09/15 02:45:46;;;;;;;8.25;2.92;;;9.10;99.90;;;;;;5047652;28;20476;-63
2023/09/15 02:48:12;;;;;;;4.80;2.95;;;9.00;99.90;;;;;;5048741;28;20061;-63
2023/09/15 02:50:43;;;;;;;5.10;2.97;;;9.00;99.90;;;;;;5047834;28;20053;-63
2023/09/15 02:53:10;;;;;;;8.45;3.75;;;9.00;99.90;;;;;;5030605;28;20041;-62
2023/09/15 02:55:37;;;;;;;6.38;3.08;;;8.90;99.90;;;;;;5028502;28;20051;-63
2023/09/15 02:58:04;;;;;;;7.55;3.10;;;8.90;99.90;;;;;;5029500;28;20120;-62
2023/09/15 03:00:30;;;;;;;5.60;3.22;;;8.90;99.90;;;;;;5027048;28;20044;-62
2023/09/15 03:02:56;;;;;;;5.68;3.30;;;8.90;99.90;;;;;;5029763;28;20057;-63
2023/09/15 03:05:21;;;;;;;7.10;3.22;;;8.80;99.90;;;;;;5030640;28;20046;-62
2023/09/15 03:07:47;;;;;;;6.18;3.10;;;8.80;99.90;;;;;;5028861;28;20052;-66
2023/09/15 03:10:13;;;;;;;7.13;3.28;;;8.80;99.90;;;;;;5029854;28;20084;-62
2023/09/15 03:12:38;;;;;;;5.50;3.42;;;8.80;99.90;;;;;;5030651;28;20103;-62
2023/09/15 03:15:06;;;;;;;4.97;3.30;;;8.80;99.90;;;;;;5028447;28;20366;-63
2023/09/15 03:17:33;;;;;;;7.22;3.30;;;8.80;99.90;;;;;;5028171;28;20048;-63
2023/09/15 03:19:58;;;;;;;6.68;4.00;;;8.80;99.90;;;;;;5028956;28;20086;-63
2023/09/15 03:22:24;;;;;;;5.05;3.35;;;8.80;99.90;;;;;;5030870;28;20128;-63
2023/09/15 03:24:50;;;;;;;6.07;3.13;;;8.80;99.90;;;;;;5035687;28;20077;-63
2023/09/15 03:27:16;;;;;;;6.28;3.50;;;8.80;99.90;;;;;;5030206;28;20049;-62
2023/09/15 03:29:41;;;;;;;7.28;3.20;;;8.80;99.90;;;;;;5026777;28;20042;-63
2023/09/15 03:32:07;;;;;;;6.68;3.58;;;8.80;99.90;;;;;;5027979;28;20200;-62
2023/09/15 03:34:32;;;;;;;5.90;3.35;;;8.80;99.90;;;;;;5028886;28;20049;-63
2023/09/15 03:37:01;;;;;;;7.65;3.72;;;8.80;99.90;;;;;;5028924;28;20073;-63
2023/09/15 03:39:26;;;;;;;9.70;3.80;;;8.80;99.90;;;;;;5027292;28;20069;-62
2023/09/15 03:41:52;;;;;;;8.93;3.50;;;8.70;99.90;;;;;;5042964;28;20056;-63
2023/09/15 03:44:19;;;;;;;8.35;4.03;;;8.80;99.90;;;;;;5046399;28;20106;-63
2023/09/15 03:46:44;;;;;;;6.57;3.55;;;8.70;99.90;;;;;;5049201;28;20401;-64
2023/09/15 03:49:10;;;;;;;9.82;3.50;;;8.70;99.90;;;;;;5048454;28;20128;-62
2023/09/15 03:51:36;;;;;;;5.97;3.45;;;8.70;99.90;;;;;;5050236;28;20056;-62
2023/09/15 03:54:02;;;;;;;6.63;3.63;;;8.60;99.90;;;;;;5047874;28;20045;-63
2023/09/15 03:56:28;;;;;;;6.53;3.53;;;8.60;99.90;;;;;;5043546;28;20466;-63
2023/09/15 03:58:55;;;;;;;5.13;3.20;;;8.60;99.90;;;;;;5027880;28;20124;-63
2023/09/15 04:01:23;;;;;;;5.13;3.60;;;8.60;99.90;;;;;;5026871;28;20506;-62
2023/09/15 04:03:49;;;;;;;6.97;3.53;;;8.60;99.90;;;;;;5028915;28;20069;-63
2023/09/15 04:06:16;;;;;;;6.90;3.70;;;8.50;99.90;;;;;;5030103;28;20049;-63
2023/09/15 04:08:42;;;;;;;6.65;3.40;;;8.50;99.90;;;;;;5028273;28;20089;-63
2023/09/15 04:11:08;;;;;;;5.55;3.72;;;8.50;99.90;;;;;;5029487;28;20453;-63
2023/09/15 04:13:33;;;;;;;4.75;3.15;;;8.50;99.90;;;;;;5027941;28;20120;-63
2023/09/15 04:16:00;;;;;;;11.80;5.05;;;8.50;99.90;;;;;;5026378;28;20069;-63
2023/09/15 04:18:26;;;;;;;6.82;3.90;;;8.40;99.90;;;;;;5027654;28;20051;-62
2023/09/15 04:20:53;;;;;;;7.13;3.72;;;8.40;99.90;;;;;;5030073;28;20095;-62
2023/09/15 04:23:19;;;;;;;7.38;3.63;;;8.40;99.90;;;;;;5031251;28;20083;-63
2023/09/15 04:25:44;;;;;;;7.97;3.90;;;8.40;99.90;;;;;;5047187;28;20476;-63
2023/09/15 04:28:10;;;;;;;10.18;4.13;;;8.40;99.90;;;;;;5047938;28;20040;-62
2023/09/15 04:30:36;;;;;;;8.10;4.38;;;8.40;99.90;;;;;;5032337;28;20124;-63
2023/09/15 04:33:01;;;;;;;8.50;4.63;;;8.40;99.90;;;;;;5027502;28;20053;-62
2023/09/15 04:35:27;;;;;;;9.55;4.32;;;8.40;99.90;;;;;;5032150;28;20037;-63
2023/09/15 04:37:54;;;;;;;7.43;4.50;;;8.40;99.90;;;;;;5047955;28;20354;-62
2023/09/15 04:40:19;;;;;;;8.50;4.53;;;8.40;99.90;;;;;;5052510;28;20083;-63
2023/09/15 04:42:45;;;;;;;9.82;4.60;;;8.40;99.90;;;;;;5051638;28;20049;-63
2023/09/15 04:45:11;;;;;;;9.80;4.72;;;8.40;99.90;;;;;;5050853;28;20063;-64
2023/09/15 04:47:37;;;;;;;9.45;4.55;;;8.40;99.90;;;;;;5042809;28;20051;-62
2023/09/15 04:50:03;;;;;;;8.25;4.03;;;8.40;99.90;;;;;;5031952;28;20038;-63
2023/09/15 04:52:29;;;;;;;6.80;4.53;;;8.30;99.90;;;;;;5033129;28;20037;-63
2023/09/15 04:54:56;;;;;;;8.20;5.47;;;8.30;99.90;;;;;;5030909;28;20041;-63
2023/09/15 04:57:21;;;;;;;9.27;4.63;;;8.30;99.90;;;;;;5031890;28;20478;-63
2023/09/15 04:59:48;;;;;;;6.80;4.60;;;8.30;99.90;;;;;;5030878;28;20130;-63
2023/09/15 05:02:14;;;;;;;7.90;4.10;;;8.30;99.90;;;;;;5031073;28;20073;-63
2023/09/15 05:04:40;;;;;;;8.98;4.40;;;8.30;99.90;;;;;;5032414;28;20046;-63
2023/09/15 05:07:06;;;;;;;12.63;5.00;;;8.30;99.90;;;;;;5031705;28;20140;-63
2023/09/15 05:09:31;;;;;;;10.95;4.93;;;8.30;99.90;;;;;;5030306;28;20068;-63
2023/09/15 05:11:57;;;;;;;8.82;4.90;;;8.30;99.90;;;;;;5030840;28;20122;-63
2023/09/15 05:14:23;;;;;;;9.73;5.07;;;8.30;99.90;;;;;;5028977;28;20042;-63
2023/09/15 05:16:49;;;;;;;10.43;5.47;;;8.20;99.90;;;;;;5030806;28;20073;-62
2023/09/15 05:19:15;;;;;;;8.57;4.95;;;8.30;99.90;;;;;;5032679;28;20041;-63
2023/09/15 05:21:41;;;;;;;10.00;5.32;;;8.20;99.90;;;;;;5030787;28;20115;-62
2023/09/15 05:24:07;;;;;;;9.07;4.93;;;8.30;99.90;;;;;;5041013;28;20047;-64
2023/09/15 05:26:32;;;;;;;14.43;5.35;;;8.30;99.90;;;;;;5050760;28;20462;-62
2023/09/15 05:28:58;;;;;;;10.35;5.38;;;8.30;99.90;;;;;;5033324;28;20365;-63
2023/09/15 05:31:25;;;;;;;10.07;5.40;;;8.30;99.90;;;;;;5049520;28;20075;-62
2023/09/15 05:33:55;;;;;;;11.25;5.28;;;8.30;99.90;;;;;;5050419;28;20041;-63
2023/09/15 05:36:21;;;;;;;12.25;5.65;;;8.30;99.90;;;;;;5025648;28;20120;-63
2023/09/15 05:38:50;;;;;;;10.48;6.78;;;8.30;99.90;;;;;;5031861;28;20120;-63
2023/09/15 05:41:16;;;;;;;9.13;5.05;;;8.30;99.90;;;;;;5029794;28;20045;-63
2023/09/15 05:43:41;;;;;;;10.95;5.47;;;8.30;99.90;;;;;;5030946;28;20385;-63
2023/09/15 05:46:07;;;;;;;8.52;5.32;;;8.40;99.90;;;;;;5028296;28;20061;-63
2023/09/15 05:48:33;;;;;;;13.50;6.30;;;8.40;99.90;;;;;;5031439;28;20064;-64
2023/09/15 05:50:59;;;;;;;9.48;5.22;;;8.50;99.90;;;;;;5029605;28;20052;-63
2023/09/15 05:53:24;;;;;;;9.60;5.70;;;8.50;99.90;;;;;;5031128;28;20060;-63
2023/09/15 05:55:50;;;;;;;13.73;6.13;;;8.60;99.90;;;;;;5029393;28;20037;-63
2023/09/15 05:58:15;;;;;;;11.07;5.80;;;8.70;99.90;;;;;;5030352;28;20033;-63
2023/09/15 06:00:41;;;;;;;9.48;5.95;;;8.80;99.90;;;;;;5028094;28;20033;-63
2023/09/15 06:03:08;;;;;;;11.73;5.85;;;8.90;99.90;;;;;;5030784;28;20053;-63
2023/09/15 06:05:34;;;;;;;8.05;5.63;;;9.00;99.90;;;;;;5030242;28;20053;-63
2023/09/15 06:07:59;;;;;;;12.10;6.07;;;9.10;99.90;;;;;;5030270;28;20037;-63
2023/09/15 06:10:25;;;;;;;8.50;4.90;;;9.20;99.90;;;;;;5030318;28;20056;-63
2023/09/15 06:12:52;;;;;;;8.95;6.05;;;9.30;99.90;;;;;;5030059;28;20041;-63
2023/09/15 06:15:18;;;;;;;8.63;5.72;;;9.40;99.90;;;;;;5028283;28;20030;-62
2023/09/15 06:17:43;;;;;;;9.50;5.68;;;9.50;99.90;;;;;;5029058;28;20041;-62
2023/09/15 06:20:09;;;;;;;11.88;6.60;;;9.70;99.90;;;;;;5029987;28;20064;-63
2023/09/15 06:22:35;;;;;;;9.77;6.25;;;9.80;99.90;;;;;;5029727;28;20436;-63
2023/09/15 06:25:01;;;;;;;11.93;6.05;;;9.90;99.90;;;;;;5046182;28;20469;-63
2023/09/15 06:27:27;;;;;;;9.02;6.00;;;10.00;99.90;;;;;;5033211;28;20075;-64
2023/09/15 06:29:53;;;;;;;10.15;6.05;;;10.20;99.90;;;;;;5031592;28;20045;-64
2023/09/15 06:32:19;;;;;;;9.43;6.35;;;10.40;99.90;;;;;;5028787;28;20086;-63
2023/09/15 06:34:45;;;;;;;12.52;5.65;;;10.60;99.90;;;;;;5031243;28;20049;-62
2023/09/15 06:37:10;;;;;;;9.30;5.63;;;10.90;99.90;;;;;;5029445;28;20033;-65
2023/09/15 06:39:36;;;;;;;10.07;5.70;;;11.10;99.90;;;;;;5029787;28;20121;-63
2023/09/15 06:42:08;;;;;;;10.15;6.40;;;11.40;99.90;;;;;;5029590;28;20198;-64
2023/09/15 06:44:37;;;;;;;8.45;5.47;;;11.60;99.90;;;;;;5027551;28;20910;-64
2023/09/15 06:47:03;;;;;;;8.00;4.88;;;11.90;99.90;;;;;;5028122;28;20045;-64
2023/09/15 06:49:30;;;;;;;11.57;5.32;;;12.20;99.90;;;;;;5029157;28;20046;-65
2023/09/15 06:51:55;;;;;;;9.07;5.28;;;12.40;99.90;;;;;;5030980;28;20053;-64
2023/09/15 06:54:21;;;;;;;9.45;4.97;;;12.60;99.90;;;;;;5027944;28;20338;-65
2023/09/15 06:56:47;;;;;;;7.70;5.32;;;12.90;99.90;;;;;;5029373;28;20049;-64
2023/09/15 06:59:13;;;;;;;8.38;4.60;;;13.00;99.90;;;;;;5029184;28;20091;-64
2023/09/15 07:01:39;;;;;;;6.93;4.57;;;13.20;99.90;;;;;;5027020;28;20485;-66
2023/09/15 07:04:05;;;;;;;8.90;4.68;;;13.40;99.90;;;;;;5027641;28;20662;-65
2023/09/15 07:06:31;;;;;;;6.60;4.35;;;13.60;99.90;;;;;;5030552;28;20427;-65
2023/09/15 07:08:57;;;;;;;10.77;5.03;;;13.80;99.90;;;;;;5030012;28;20041;-66
2023/09/15 07:11:23;;;;;;;7.18;4.85;;;14.20;99.90;;;;;;5029561;28;20037;-65
2023/09/15 07:13:48;;;;;;;6.53;4.25;;;14.30;99.90;;;;;;5028406;28;20069;-65
2023/09/15 07:16:14;;;;;;;7.18;4.40;;;14.50;99.90;;;;;;5027156;28;20084;-65
2023/09/15 07:18:39;;;;;;;6.93;4.43;;;14.60;99.90;;;;;;5028124;28;20048;-66
2023/09/15 07:21:05;;;;;;;7.38;4.40;;;14.90;99.90;;;;;;5047879;28;20404;-65
2023/09/15 07:23:30;;;;;;;6.65;4.32;;;15.00;99.90;;;;;;5047977;28;20115;-65
2023/09/15 07:25:56;;;;;;;7.82;4.32;;;15.20;99.90;;;;;;5031038;28;20102;-65
2023/09/15 07:28:22;;;;;;;7.97;4.05;;;15.50;99.90;;;;;;5048577;28;20045;-66
2023/09/15 07:30:47;;;;;;;7.13;4.18;;;15.60;99.90;;;;;;5046486;28;20049;-65
2023/09/15 07:33:13;;;;;;;8.25;4.60;;;15.70;99.90;;;;;;5047439;28;20056;-66
2023/09/15 07:35:38;;;;;;;7.82;4.43;;;15.90;99.90;;;;;;5048444;28;20100;-65
2023/09/15 07:38:04;;;;;;;5.95;4.07;;;15.90;99.90;;;;;;5049955;28;20376;-65
2023/09/15 07:40:30;;;;;;;6.70;4.00;;;15.90;99.60;;;;;;5042012;28;20049;-65
2023/09/15 07:42:55;;;;;;;10.23;4.35;;;15.90;99.10;;;;;;5027557;28;20083;-66
2023/09/15 07:45:21;;;;;;;5.00;4.18;;;15.90;98.80;;;;;;5032850;28;20037;-65
2023/09/15 07:47:47;;;;;;;8.30;3.92;;;15.70;98.50;;;;;;5047390;28;20045;-64
2023/09/15 07:50:13;;;;;;;7.95;3.80;;;15.80;98.10;;;;;;5048116;28;20112;-66
2023/09/15 07:52:40;;;;;;;9.65;4.00;;;15.80;97.20;;;;;;5047932;28;20048;-66
2023/09/15 07:55:06;;;;;;;6.43;3.90;;;15.80;95.70;;;;;;5047728;28;20045;-64
2023/09/15 07:57:37;;;;;;;8.98;4.20;;;15.80;95.70;;;;;;5047871;28;20078;-65
2023/09/15 08:00:04;;;;;;;6.30;4.13;;;15.80;95.10;;;;;;5047443;28;20041;-65
2023/09/15 08:02:31;;;;;;;5.72;3.95;;;15.80;94.80;;;;;;5047184;28;20055;-66
2023/09/15 08:04:57;;;;;;;5.60;3.65;;;15.80;94.70;;;;;;5031653;28;20465;-66
2023/09/15 08:07:22;;;;;;;9.48;4.43;;;15.70;94.00;;;;;;5038991;28;20041;-65
2023/09/15 08:09:48;;;;;;;5.85;3.65;;;15.70;94.00;;;;;;5042229;28;20041;-65
2023/09/15 08:12:16;;;;;;;7.63;4.20;;;15.70;94.00;;;;;;5011181;28;20041;-65
2023/09/15 08:14:42;;;;;;;6.57;4.07;;;15.90;93.70;;;;;;5028553;28;20311;-65
2023/09/15 08:17:07;;;;;;;6.07;4.25;;;15.90;93.60;;;;;;5031061;28;20034;-65
2023/09/15 08:19:33;;;;;;;10.30;3.97;;;16.00;93.40;;;;;;5047368;28;20173;-66
2023/09/15 08:22:00;;;;;;;8.57;3.80;;;16.20;92.90;;;;;;5032271;28;20093;-65
2023/09/15 08:24:26;;;;;;;7.82;4.28;;;16.20;92.70;;;;;;5042499;28;20053;-65
2023/09/15 08:26:52;;;;;;;7.75;3.88;;;16.20;92.70;;;;;;5034641;28;20242;-65
2023/09/15 08:29:17;;;;;;;9.10;4.20;;;16.60;92.30;;;;;;5041441;28;20091;-66
2023/09/15 08:31:43;;;;;;;8.40;3.90;;;17.10;91.50;;;;;;5031967;28;20073;-65
2023/09/15 08:34:08;;;;;;;5.28;3.08;;;17.60;90.70;;;;;;5036298;28;20029;-65
2023/09/15 08:36:34;;;;;;;8.00;3.80;;;17.80;90.40;;;;;;5039729;28;20047;-66
2023/09/15 08:38:59;;;;;;;7.07;4.15;;;18.00;90.50;;;;;;5032156;28;20116;-66
2023/09/15 08:41:39;;;;;;;8.95;4.10;;;18.10;90.20;;;;;;5030587;28;20053;-65
2023/09/15 08:44:11;;;;;;;7.60;4.13;;;18.00;89.80;;;;;;5030000;28;20087;-66
2023/09/15 08:46:41;;;;;;;6.88;4.03;;;18.00;90.60;;;;;;5037123;28;20641;-66
2023/09/15 08:49:08;;;;;;;8.63;3.47;;;18.20;90.10;;;;;;5038286;28;20116;-65
2023/09/15 08:51:36;;;;;;;6.03;3.20;;;18.40;89.50;;;;;;5031071;28;20444;-67
2023/09/15 08:54:03;;;;;;;7.25;3.50;;;18.60;88.30;;;;;;5034359;28;20116;-65
2023/09/15 08:56:29;;;;;;;7.60;3.78;;;18.60;87.40;;;;;;5050527;28;20094;-66
2023/09/15 08:58:56;;;;;;;7.75;3.33;;;18.50;87.60;;;;;;5037698;28;20033;-66
2023/09/15 09:01:22;;;;;;;8.32;3.70;;;18.40;87.80;;;;;;5034292;28;20045;-66
2023/09/15 09:03:48;;;;;;;8.30;3.75;;;18.40;87.80;;;;;;5024584;28;20083;-66
2023/09/15 09:06:15;;;;;;;8.82;3.83;;;18.30;87.00;;;;;;5030977;28;20123;-65
2023/09/15 09:08:45;;;;;;;7.15;3.92;;;18.20;87.40;;;;;;5030601;28;20045;-67
2023/09/15 09:11:11;;;;;;;4.93;3.47;;;18.10;86.30;;;;;;5032915;28;20484;-64
2023/09/15 09:13:38;;;;;;;7.38;2.70;;;18.20;86.10;;;;;;5043904;28;20033;-65
2023/09/15 09:16:07;;;;;;;6.38;3.10;;;18.10;86.50;;;;;;5037194;28;20048;-65
2023/09/15 09:18:34;;;;;;;6.20;3.63;;;18.10;85.90;;;;;;5030033;28;20470;-67
2023/09/15 09:21:02;;;;;;;6.03;3.03;;;18.20;85.50;;;;;;5030612;28;20045;-67
2023/09/15 09:23:28;;;;;;;6.43;2.85;;;18.10;84.30;;;;;;5039231;28;20090;-67
2023/09/15 09:25:53;;;;;;;6.25;3.08;;;18.10;84.30;;;;;;5040509;28;20496;-66
2023/09/15 09:28:20;;;;;;;6.18;2.67;;;18.10;84.00;;;;;;5013493;28;20052;-65
2023/09/15 09:30:46;;;;;;;6.18;3.28;;;18.20;84.10;;;;;;5033343;28;20085;-66
2023/09/15 09:33:12;;;;;;;6.60;3.33;;;18.20;84.00;;;;;;5029173;28;20116;-65
2023/09/15 09:35:38;;;;;;;6.70;3.22;;;18.30;84.00;;;;;;5031380;28;20041;-66
2023/09/15 09:38:04;;;;;;;6.18;3.13;;;18.40;83.80;;;;;;5040184;28;20489;-67
2023/09/15 09:40:33;;;;;;;6.32;3.50;;;18.40;83.30;;;;;;5032466;28;20053;-67
2023/09/15 09:42:58;;;;;;;6.80;3.38;;;18.50;82.50;;;;;;5022633;28;20127;-67
2023/09/15 09:45:28;;;;;;;5.45;3.05;;;18.60;82.20;;;;;;5034724;28;20208;-68
2023/09/15 09:47:55;;;;;;;7.63;3.60;;;18.70;81.70;;;;;;5040645;28;20040;-66
2023/09/15 09:50:20;;;;;;;7.10;3.50;;;18.80;80.90;;;;;;5034338;28;20037;-67
2023/09/15 09:52:46;;;;;;;7.30;4.00;;;18.70;80.00;;;;;;5041878;28;20119;-66
2023/09/15 09:55:14;;;;;;;9.05;4.10;;;18.80;79.70;;;;;;5028975;28;20358;-67
2023/09/15 09:57:40;;;;;;;6.82;3.95;;;18.90;79.80;;;;;;5030957;28;20037;-67
2023/09/15 10:00:09;;;;;;;7.68;3.75;;;18.90;78.70;;;;;;5046028;28;20053;-66
2023/09/15 10:02:40;;;;;;;10.93;3.92;;;18.90;78.60;;;;;;5048610;28;20092;-66
2023/09/15 10:05:06;;;;;;;9.35;3.55;;;18.90;77.60;;;;;;5039057;28;20045;-66
2023/09/15 10:07:32;;;;;;;5.28;3.20;;;18.80;77.90;;;;;;5043472;28;20090;-65
2023/09/15 10:09:59;;;;;;;5.28;3.50;;;19.00;77.60;;;;;;5030905;28;20099;-66
2023/09/15 10:12:25;;;;;;;6.07;3.10;;;19.00;75.80;;;;;;5034062;28;20121;-66
2023/09/15 10:14:51;;;;;;;6.65;2.90;;;19.10;76.30;;;;;;5040197;28;20034;-66
2023/09/15 10:17:18;;;;;;;5.07;3.08;;;19.10;76.00;;;;;;5028808;28;20049;-67
2023/09/15 10:19:47;;;;;;;4.18;2.88;;;19.10;75.40;;;;;;5046612;28;20146;-68
2023/09/15 10:22:13;;;;;;;6.85;2.75;;;19.20;74.50;;;;;;5029938;28;20661;-67
2023/09/15 10:24:44;;;;;;;4.93;2.25;;;19.10;74.00;;;;;;5035205;28;20385;-65
2023/09/15 10:27:09;;;;;;;8.57;2.80;;;19.10;74.00;;;;;;5030735;28;20452;-67
2023/09/15 10:29:37;;;;;;;6.60;2.90;;;19.20;74.90;;;;;;5028385;28;20129;-68
2023/09/15 10:32:03;;;;;;;4.32;2.15;;;19.30;74.00;;;;;;5029869;28;20103;-65
2023/09/15 10:34:29;;;;;;;6.10;2.50;;;19.30;74.00;;;;;;5030873;28;20034;-66
2023/09/15 10:36:59;;;;;;;5.35;2.50;;;19.30;74.10;;;;;;5028420;28;20075;-66
2023/09/15 10:39:38;;;;;;;7.78;2.60;;;19.40;73.10;;;;;;5028460;28;20057;-65
2023/09/15 10:42:14;;;;;;;4.93;2.22;;;19.40;73.50;;;;;;5028667;28;20380;-65
2023/09/15 10:44:41;;;;;;;5.43;2.17;;;19.30;73.40;;;;;;5028280;28;20133;-66
2023/09/15 10:47:20;;;;;;;4.05;2.10;;;19.40;73.60;;;;;;5038743;28;20052;-67
2023/09/15 10:49:51;;;;;;;3.92;2.22;;;19.40;73.50;;;;;;5048623;28;20060;-66
2023/09/15 10:52:17;;;;;;;5.07;2.33;;;19.40;72.40;;;;;;5028681;28;20473;-66
2023/09/15 10:54:42;;;;;;;4.32;2.10;;;19.40;72.40;;;;;;5027553;28;20041;-65
2023/09/15 10:57:09;;;;;;;4.68;2.30;;;19.30;72.10;;;;;;5039346;28;20101;-66
2023/09/15 10:59:36;;;;;;;8.15;2.13;;;19.50;72.40;;;;;;5032238;28;20083;-66
2023/09/15 11:02:02;;;;;;;9.73;2.33;;;19.60;72.00;;;;;;5027468;28;20037;-66
2023/09/15 11:04:29;;;;;;;4.32;2.40;;;19.60;71.60;;;;;;5033502;28;20049;-64
2023/09/15 11:06:55;;;;;;;6.18;2.70;;;19.50;70.90;;;;;;5041025;28;20045;-65
2023/09/15 11:09:21;;;;;;;10.27;2.60;;;19.40;70.80;;;;;;5041150;28;20052;-67
2023/09/15 11:11:49;;;;;;;4.93;2.30;;;19.40;71.00;;;;;;5032308;28;20054;-66
2023/09/15 11:14:19;;;;;;;4.22;1.85;;;19.40;71.30;;;;;;5046983;28;20033;-66
2023/09/15 11:16:48;;;;;;;;;;;19.40;71.60;;;;;;5040583;28;20049;-67
2023/09/15 11:19:15;;;;;;;6.22;2.22;;;19.40;71.00;;;;;;5028457;28;20778;-66
2023/09/15 11:21:41;;;;;;;5.60;2.10;;;19.50;71.90;;;;;;5028837;28;20041;-66
2023/09/15 11:24:09;;;;;;;7.53;2.10;;;19.50;71.30;;;;;;5025007;28;20342;-67
2023/09/15 11:26:35;;;;;;;5.57;2.28;;;19.60;70.40;;;;;;5042160;28;20052;-66
2023/09/15 11:29:01;;;;;;;5.90;2.15;;;19.60;70.40;;;;;;5036704;28;20033;-66
2023/09/15 11:31:26;;;;;;;4.10;2.00;;;19.60;70.10;;;;;;5033947;28;20045;-66
2023/09/15 11:33:54;;;;;;;9.10;2.38;;;19.70;70.00;;;;;;5043974;28;20065;-67
2023/09/15 11:36:24;;;;;;;6.10;1.83;;;19.70;69.60;;;;;;5032242;28;20072;-68
2023/09/15 11:38:50;;;;;;;4.45;2.20;;;19.70;69.80;;;;;;5047677;28;20512;-66
2023/09/15 11:41:16;;;;;;;3.42;1.90;;;19.80;70.50;;;;;;5018517;28;20046;-66
2023/09/15 11:43:43;;;;;;;7.50;2.53;;;19.90;69.30;;;;;;5028110;28;20045;-66
2023/09/15 11:46:10;;;;;;;4.20;1.90;;;20.00;69.50;;;;;;5042392;28;20453;-66
2023/09/15 11:48:38;;;;;;;4.40;2.15;;;20.00;69.10;;;;;;5026383;28;20504;-66
2023/09/15 11:51:06;;;;;;;4.60;2.00;;;19.90;68.70;;;;;;5031193;28;20500;-67
2023/09/15 11:53:36;;;;;;;5.57;2.00;;;20.00;68.40;;;;;;5039770;28;20107;-66
2023/09/15 11:56:04;;;;;;;5.72;2.30;;;20.00;68.00;;;;;;5026968;28;20052;-66
2023/09/15 11:58:31;;;;;;;6.88;2.20;;;19.90;68.30;;;;;;5042978;28;20540;-67
2023/09/15 12:00:57;;;;;;;5.00;2.38;;;19.90;68.00;;;;;;5045416;28;20128;-66
2023/09/15 12:03:24;;;;;;;5.75;2.50;;;19.90;68.20;;;;;;5034166;28;20494;-65
2023/09/15 12:05:50;;;;;;;4.30;1.73;;;20.00;68.60;;;;;;5027510;28;20084;-68
2023/09/15 12:08:16;;;;;;;4.03;2.03;;;20.10;68.20;;;;;;5029248;28;20079;-66
2023/09/15 12:10:42;;;;;;;3.85;1.80;;;20.10;68.70;;;;;;5027128;28;20504;-67
2023/09/15 12:13:08;;;;;;;6.28;1.98;;;20.30;68.70;;;;;;5036630;28;20037;-66
2023/09/15 12:15:34;;;;;;;4.15;1.92;;;20.40;68.60;;;;;;5046858;28;20055;-66
2023/09/15 12:18:02;;;;;;;4.68;1.95;;;20.50;68.30;;;;;;5028902;28;20538;-66
2023/09/15 12:20:28;;;;;;;4.72;2.00;;;20.40;66.70;;;;;;5029659;28;20049;-66
2023/09/15 12:22:53;;;;;;;5.82;1.85;;;20.50;67.30;;;;;;5028419;28;20041;-66
2023/09/15 12:25:20;;;;;;;5.32;2.47;;;20.60;67.60;;;;;;5046538;28;20142;-67
2023/09/15 12:27:46;;;;;;;5.53;1.98;;;20.60;67.20;;;;;;5047912;28;20052;-67
2023/09/15 12:30:13;;;;;;;4.68;2.13;;;20.50;67.30;;;;;;5047195;28;20396;-66
2023/09/15 12:32:38;;;;;;;7.45;2.53;;;20.40;67.60;;;;;;5048490;28;20371;-65
2023/09/15 12:35:12;;;;;;;5.00;2.22;;;20.60;66.80;;;;;;5048721;28;20037;-66
2023/09/15 12:37:45;;;;;;;6.18;2.33;;;20.70;66.60;;;;;;5045025;28;20092;-65
2023/09/15 12:40:13;;;;;;;4.88;1.80;;;20.90;66.70;;;;;;5036002;28;20044;-67
2023/09/15 12:42:39;;;;;;;4.38;2.10;;;21.10;66.50;;;;;;5032093;28;20052;-66
2023/09/15 12:45:06;;;;;;;5.68;2.15;;;21.20;65.60;;;;;;5034490;28;20040;-66
2023/09/15 12:47:33;;;;;;;6.55;2.25;;;21.30;65.40;;;;;;5042293;28;20127;-66